• Join FlightAware (Why Join?)
  • Login
  • US Flag 
11:08AM EDT


 

Airport Tracker/Info


-or-


 

Live Flight TrackerFlight Track Log ✈ SKW6306 ✈ 17-Jun-2013 ✈ KDEN - CYXE

Flight Track Log - Related Links

Times and Time Zones

All times are in EDT time to prevent confusion due to time zone crossing. See the SKW6306 flight status page for this flight to view local times or setup timezone preferences in your user account.

Time Position Orientation Groundspeed Altitude Reporting Facility
EDT Latitude Longitude Course Direction KTS MPH feet Rate Location/Type
02:02PM 39.9500 -104.6833 346° North 201 231 7,500  Level Denver TRACON
02:03PM 40.0167 -104.6667 11° North 272 313 8,500 1,260 Climbing Denver TRACON
02:04PM 40.1630 -104.7706 347° North  Level FlightAware Approximate
02:04PM 40.0892 -104.6606 North 291 335 10,000  Level Denver Center
02:05PM 40.2682 -104.8021 347° North  Level FlightAware Approximate
02:05PM 40.1750 -104.6461 North 308 354 11,900  Level Denver Center
02:06PM 40.3731 -104.8355 346° North  Level FlightAware Approximate
02:06PM 40.2728 -104.6311 North 332 382 13,600  Level Denver Center
02:07PM 40.4776 -104.8703 346° North  Level FlightAware Approximate
02:07PM 40.3614 -104.6125 North 324 373 15,200  Level Denver Center
02:08PM 40.4603 -104.5872 11° North 338 389 16,800 1,260 Climbing Denver Center
02:09PM 40.5531 -104.5697 North 341 392 17,900 1,200 Climbing Denver Center
02:10PM 40.6542 -104.5961 349° North 349 402 19,400 1,200 Climbing Denver Center
02:11PM 40.7506 -104.6189 350° North 335 386 20,500 960 Climbing Denver Center
02:12PM 40.8469 -104.6436 349° North 348 400 21,400 900 Climbing Denver Center
02:13PM 40.9456 -104.6667 350° North 359 413 22,400 900 Climbing Denver Center
02:14PM 41.0494 -104.6867 352° North 363 418 23,300 1,080 Climbing Denver Center
02:15PM 41.1625 -104.7158 349° North 369 425 24,700 960 Climbing Denver Center
02:16PM 41.2592 -104.7378 350° North 368 423 25,400 600 Climbing Denver Center
02:17PM 41.3569 -104.7617 350° North 372 428 26,000 600 Climbing Denver Center
02:18PM 41.4733 -104.7894 350° North 379 436 26,700 600 Climbing Denver Center
02:19PM 41.5742 -104.8164 349° North 385 443 27,300 540 Climbing Denver Center
02:20PM 41.6922 -104.8447 350° North 385 443 27,900 540 Climbing Denver Center
02:21PM 41.7936 -104.8708 349° North 386 444 28,500 600 Climbing Denver Center
02:22PM 41.9128 -104.8981 350° North 387 445 29,200 600 Climbing Denver Center
02:23PM 42.0147 -104.9236 349° North 388 447 29,800 600 Climbing Denver Center
02:24PM 42.1311 -104.9533 349° North 382 440 30,500 600 Climbing Denver Center
02:25PM 42.2317 -104.9772 350° North 380 437 31,100 480 Climbing Denver Center
02:26PM 42.3483 -105.0050 350° North 378 435 31,600 420 Climbing Denver Center
02:28PM 42.4469 -105.0306 349° North 377 434 32,000 120 Climbing Denver Center
02:29PM 42.5825 -105.0650 349° North 383 441 32,000  Level Denver Center
02:30PM 42.6875 -105.0931 349° North 393 452 32,000  Level Denver Center
02:31PM 42.8125 -105.1233 350° North 404 465 32,000  Level Denver Center
02:32PM 42.9214 -105.1497 350° North 412 474 32,000  Level Denver Center
02:33PM 43.0306 -105.1769 350° North 415 478 32,000  Level Denver Center
02:34PM 43.1583 -105.2092 350° North 416 479 32,000  Level Denver Center
02:35PM 43.2683 -105.2372 349° North 419 482 32,000  Level Denver Center
02:36PM 43.3942 -105.2692 350° North 414 476 32,000  Level Denver Center
02:37PM 43.5031 -105.2972 349° North 414 476 32,000  Level Denver Center
02:38PM 43.6286 -105.3297 349° North 412 474 32,000  Level Denver Center
02:39PM 43.7353 -105.3572 349° North 408 470 32,000  Level Denver Center
02:40PM 43.8575 -105.3881 350° North 402 463 32,000  Level Denver Center
02:41PM 43.9622 -105.4156 349° North 400 460 32,000  Level Denver Center
02:42PM 44.0825 -105.4475 349° North 396 456 32,000  Level Denver Center
02:43PM 44.1842 -105.4772 348° North 393 452 32,000  Level Denver Center
02:44PM 44.3033 -105.5086 349° North 391 450 32,000  Level Denver Center
02:45PM 44.4050 -105.5344 350° North 389 448 32,000  Level Denver Center
02:46PM 44.5058 -105.5600 350° North 386 444 32,000  Level Denver Center
02:47PM 44.6197 -105.5931 348° North 380 437 32,000  Level Denver Center
02:48PM 44.6736 -105.6081 349° North 384 442 32,000  Level Salt Lake Center
02:49PM 44.7883 -105.6353 350° North 377 434 32,000  Level Salt Lake Center
02:49PM 44.8336 -105.6511 346° North 377 434 32,000  Level Denver Center
02:50PM 44.8872 -105.6628 351° North 377 434 32,000  Level Salt Lake Center
02:51PM 45.0039 -105.6944 349° North 380 437 32,000  Level Salt Lake Center
02:52PM 45.1033 -105.7214 349° North 380 437 32,000  Level Salt Lake Center
02:53PM 45.2214 -105.7536 349° North 385 443 32,000  Level Salt Lake Center
02:54PM 45.3247 -105.7817 349° North 390 449 32,000  Level Salt Lake Center
02:55PM 45.4256 -105.8103 349° North 387 445 32,000  Level Salt Lake Center
02:56PM 45.5428 -105.8417 349° North 384 442 32,000  Level Salt Lake Center
02:57PM 45.6456 -105.8714 349° North 389 448 32,000  Level Salt Lake Center
02:58PM 45.7628 -105.9031 349° North 386 444 32,000  Level Salt Lake Center
02:59PM 45.8606 -105.9297 349° North 378 435 32,000  Level Salt Lake Center
03:00PM 45.9761 -105.9578 350° North 376 433 32,000  Level Salt Lake Center
03:01PM 46.0767 -105.9872 349° North 380 437 32,000  Level Salt Lake Center
03:02PM 46.1947 -106.0219 348° North 386 444 32,000  Level Salt Lake Center
03:03PM 46.2958 -106.0508 349° North 387 445 32,000  Level Salt Lake Center
03:04PM 46.4125 -106.0864 348° North 385 443 32,000  Level Salt Lake Center
03:05PM 46.5131 -106.1147 349° North 384 442 32,000  Level Salt Lake Center
03:07PM 46.6283 -106.1494 348° North 382 440 32,000  Level Salt Lake Center
03:08PM 46.7267 -106.1775 349° North 378 435 32,000  Level Salt Lake Center
03:09PM 46.8403 -106.2108 349° North 373 429 32,000  Level Salt Lake Center
03:10PM 46.9378 -106.2422 348° North 373 429 32,000  Level Salt Lake Center
03:11PM 47.0403 -106.2708 349° North 374 430 32,000  Level Salt Lake Center
03:12PM 47.1408 -106.3011 348° North 371 427 32,000  Level Salt Lake Center
03:13PM 47.2608 -106.3347 349° North 371 427 32,000  Level Salt Lake Center
03:14PM 47.3578 -106.3664 348° North 371 427 32,000  Level Salt Lake Center
03:15PM 47.4644 -106.3978 349° North 370 426 32,000  Level Salt Lake Center
03:16PM 47.5656 -106.4275 349° North 369 425 32,000  Level Salt Lake Center
03:17PM 47.6667 -106.4583 348° North 371 427 32,000  Level Salt Lake Center
03:18PM 47.7683 -106.4892 348° North 372 428 32,000  Level Salt Lake Center
03:19PM 47.8711 -106.5194 349° North 375 432 32,000  Level Salt Lake Center
03:20PM 47.9739 -106.5500 349° North 376 433 32,000  Level Salt Lake Center
03:21PM 48.0939 -106.5892 348° North 371 427 32,000  Level Salt Lake Center
03:22PM 48.1964 -106.6203 349° North 371 427 32,000  Level Salt Lake Center
03:23PM 48.2975 -106.6661 343° North 377 434 32,000  Level Salt Lake Center
03:24PM 48.3978 -106.7161 342° North 380 437 32,000  Level Salt Lake Center
03:25PM 48.4986 -106.7664 342° North 381 438 32,000  Level Salt Lake Center
03:26PM 48.6000 -106.8164 342° North 382 440 32,000  Level Salt Lake Center
03:27PM 48.7228 -106.8778 342° North 386 444 32,000  Level Salt Lake Center
03:28PM 48.8239 -106.9281 342° North 384 442 32,000  Level Salt Lake Center
03:29PM 48.8833 -107.0000 321° Northwest 380 437 32,000  Level Winnipeg Center
03:30PM 48.9833 -107.0500 342° North 390 449 32,000  Level Winnipeg Center
03:31PM 49.0667 -107.1000 339° North 390 449 32,000  Level Winnipeg Center
03:32PM 49.1833 -107.1500 344° North 390 449 32,000  Level Winnipeg Center
03:33PM 49.2833 -107.2000 342° North 390 449 32,000  Level Winnipeg Center
03:34PM 49.4000 -107.2500 344° North 390 449 32,000  Level Winnipeg Center
03:35PM 49.4833 -107.3167 333° Northwest 390 449 32,000  Level Winnipeg Center
03:36PM 49.6000 -107.3667 344° North 390 449 32,000  Level Winnipeg Center
03:37PM 49.7000 -107.3833 354° North 400 460 32,000  Level Winnipeg Center
03:38PM 49.8000 -107.3500 12° North 410 472 32,000  Level Winnipeg Center
03:39PM 49.9333 -107.3000 14° North 410 472 32,000  Level Winnipeg Center
03:40PM 50.0333 -107.2833 North 420 483 32,000  Level Winnipeg Center
03:41PM 50.1500 -107.2333 15° North 420 483 32,000  Level Winnipeg Center
03:42PM 50.2667 -107.2000 10° North 420 483 32,000  Level Winnipeg Center
03:43PM 50.3833 -107.1500 15° North 420 483 32,000  Level Winnipeg Center
03:44PM 50.5000 -107.1167 10° North 430 495 32,000  Level Winnipeg Center
03:45PM 50.6167 -107.0667 15° North 430 495 32,000  Level Winnipeg Center
03:46PM 50.7333 -107.0333 10° North 430 495 32,000  Level Winnipeg Center
03:47PM 50.8500 -106.9833 15° North 430 495 32,000  Level Winnipeg Center
03:48PM 50.9667 -106.9333 15° North 430 495 32,000 -180 Level Winnipeg Center
03:49PM 51.0833 -106.9000 10° North 430 495 31,700 -1,920 Descending Winnipeg Center
03:50PM 51.2000 -106.8500 15° North 440 506 28,200 -3,840 Descending Winnipeg Center
03:51PM 51.3167 -106.7833 20° North 450 518 24,100 -4,020 Descending Winnipeg Center
03:52PM 51.4500 -106.7667 North 450 518 20,200 -3,780 Descending Winnipeg Center
03:53PM 51.5667 -106.7000 20° North 440 506 16,600 -3,540 Descending Winnipeg Center
03:54PM 51.6667 -106.6667 12° North 410 472 13,200 -2,760 Descending Winnipeg Center
03:55PM 51.7667 -106.6500 North 380 437 11,100 -1,620 Descending Winnipeg Center
03:56PM 51.8667 -106.6000 17° North 320 368 10,000 -1,560 Descending Winnipeg Center
03:57PM 51.9333 -106.6000 360° North 290 334 8,000 -2,040 Descending Winnipeg Center
03:58PM 52.0167 -106.5667 14° North 280 322 6,000 -1,440 Descending Winnipeg Center
04:00PM 52.1333 -106.5333 10° North 230 265 3,800 -1,080 Descending Winnipeg Center
04:01PM 52.1500 -106.6167 288° West 190 219 2,900 -900 Descending Winnipeg Center
04:02PM 52.1500 -106.6667 270° West 150 173 2,000 -900 Descending Winnipeg Center